Terminal Aerodrome Forecast
Issued by NWS Shreveport, LA

Home | Current Version | Previous Version | Text Only | Print | Product List | Glossary On
Versions: 1 2 3 4 5 6 7 8 9 10 11 12 13 14 15 16 17 18
000
FTUS44 KSHV 230500
TAFSHV
TAF
KSHV 230531Z 2306/2406 VRB03KT P6SM FEW250
      TEMPO 2310/2313 5SM BR
     FM231600 VRB04KT P6SM SCT030 SCT250
     FM231800 VRB04KT P6SM BKN045 BKN250
     FM232000 VRB04KT P6SM SCT050 BKN250
     FM240000 VRB03KT P6SM BKN250=

USA.gov is the U.S. government's official web portal to all federal, state and local government web resources and services.